Terminal Aerodrome Forecast
Issued by NWS

Current Version | Previous Version | Graphics & Text | Print | Product List | Glossary On
Versions: 1 2 3 4 5 6 7 8 9 10 11 12 13 14 15 16 17 18 19 20 21 22 23 24 25 26
000
FTUS41 KPBZ 252337
TAFHLG
TAF
KHLG 252337Z 2600/2624 22005KT P6SM BKN080
     FM260800 23008KT P6SM VCSH BKN050 WS020/25040KT
     FM261300 24012G22KT P6SM VCSH BKN035
     FM261700 25012G22KT 5SM -SHRA OVC035
     FM262000 32010KT P6SM BKN025=

USA.gov is the U.S. government's official web portal to all federal, state and local government web resources and services.